createdAt,value
2019-02-28T00:08:13.015Z,100713.06
2019-02-28T00:18:18.814Z,100691.91
2019-02-28T00:28:25.802Z,100659.41
2019-02-28T00:38:32.748Z,100656.17
2019-02-28T00:48:38.579Z,100628.86
2019-02-28T00:58:44.301Z,100618.03
2019-02-28T01:08:50.084Z,100603.03
2019-02-28T01:18:55.687Z,100595.80
2019-02-28T01:29:02.006Z,100577.98
2019-02-28T01:39:08.407Z,100560.47
2019-02-28T01:49:14.216Z,100535.23
2019-02-28T01:59:21.652Z,100500.98
2019-02-28T02:09:27.136Z,100495.97
2019-02-28T02:19:32.740Z,100459.58
2019-02-28T02:29:38.440Z,100461.22
2019-02-28T02:39:43.941Z,100448.44
2019-02-28T02:49:56.169Z,100441.74
2019-02-28T02:59:56.786Z,100419.09
2019-02-28T03:10:02.177Z,100404.41
2019-02-28T03:20:10.306Z,100393.91
2019-02-28T03:30:28.705Z,100393.67
2019-02-28T03:40:25.413Z,100393.67
2019-02-28T03:50:31.018Z,100386.75
2019-02-28T04:00:36.723Z,100374.41
2019-02-28T04:10:42.217Z,100365.70
2019-02-28T04:20:47.712Z,100348.21
2019-02-28T04:30:53.210Z,100349.66
2019-02-28T04:40:59.938Z,100337.73
2019-02-28T04:51:06.603Z,100339.09
2019-02-28T05:01:13.525Z,100318.72
2019-02-28T05:11:19.079Z,100329.93
2019-02-28T05:21:24.667Z,100346.22
2019-02-28T05:31:30.374Z,100273.63
2019-02-28T05:41:36.349Z,100257.39
2019-02-28T05:51:41.991Z,100226.64
2019-02-28T06:01:47.773Z,100205.48
2019-02-28T06:11:53.389Z,100237.34
2019-02-28T06:21:59.461Z,100243.07
2019-02-28T06:32:05.832Z,100249.97
2019-02-28T06:42:12.540Z,100288.57
2019-02-28T06:52:18.343Z,100295.95
2019-02-28T07:02:24.263Z,100286.86
2019-02-28T07:12:30.554Z,100284.09
2019-02-28T07:22:36.255Z,100270.36
2019-02-28T07:32:41.857Z,100276.88
2019-02-28T07:42:47.564Z,100317.30
2019-02-28T07:52:53.295Z,100344.52
2019-02-28T08:02:58.755Z,100348.80
2019-02-28T08:13:04.352Z,100381.09
2019-02-28T08:23:09.841Z,100381.09
2019-02-28T08:33:16.322Z,100365.58
2019-02-28T08:43:27.168Z,100361.57
2019-02-28T08:53:29.932Z,100391.46
2019-02-28T09:03:36.991Z,100413.75
2019-02-28T09:13:43.644Z,100411.24
2019-02-28T09:23:49.607Z,100422.58
2019-02-28T09:33:55.437Z,100423.56
2019-02-28T09:44:03.507Z,100450.41
2019-02-28T09:54:09.143Z,100446.19
2019-02-28T10:04:14.863Z,100467.53
2019-02-28T10:14:20.556Z,100458.42
2019-02-28T10:24:28.457Z,100461.09
2019-02-28T10:34:35.349Z,100491.86
2019-02-28T10:44:40.828Z,100507.16
2019-02-28T10:54:48.698Z,100501.45
2019-02-28T11:04:53.965Z,100521.34
2019-02-28T11:14:59.566Z,100542.73
2019-02-28T11:25:08.342Z,100520.73
2019-02-28T11:35:13.937Z,100526.75
2019-02-28T11:45:28.628Z,100522.78
2019-02-28T11:55:35.169Z,100536.88
2019-02-28T12:05:41.077Z,100536.88
2019-02-28T12:15:47.298Z,100556.00
2019-02-28T12:25:53.566Z,100545.60
2019-02-28T12:36:02.206Z,100583.96
2019-02-28T12:46:11.268Z,100583.96
2019-02-28T12:56:17.866Z,100596.00
2019-02-28T13:06:24.556Z,100592.20
2019-02-28T13:16:30.288Z,100594.25
2019-02-28T13:26:36.000Z,100956.77
2019-02-28T13:36:41.901Z,100964.72
2019-02-28T13:46:47.495Z,100945.29
2019-02-28T13:56:52.997Z,100916.91
2019-02-28T14:06:58.829Z,100916.91
2019-02-28T14:17:06.568Z,100913.91
2019-02-28T14:27:12.750Z,100890.56
2019-02-28T14:37:19.603Z,100858.61
2019-02-28T14:47:28.486Z,100886.95
2019-02-28T14:57:33.963Z,100886.95
2019-02-28T15:07:41.934Z,100915.65
2019-02-28T15:17:50.625Z,100927.78
2019-02-28T15:27:57.424Z,100922.55
2019-02-28T15:38:05.931Z,100887.83
2019-02-28T15:48:10.405Z,100901.34
2019-02-28T15:58:16.763Z,100928.01
2019-02-28T16:08:22.882Z,100944.97
2019-02-28T16:18:28.367Z,100929.62
2019-02-28T16:28:34.565Z,100951.48
2019-02-28T16:38:42.460Z,100962.33
2019-02-28T16:48:47.522Z,100954.56
2019-02-28T16:58:53.758Z,100957.73
2019-02-28T17:09:02.202Z,100970.77
2019-02-28T17:19:09.444Z,100972.20
2019-02-28T17:29:21.610Z,100970.52
2019-02-28T17:39:26.808Z,100987.17
2019-02-28T17:50:08.299Z,100991.44
2019-02-28T18:00:29.267Z,100987.66
2019-02-28T18:10:46.812Z,100994.84
2019-02-28T18:21:30.682Z,101005.69
2019-02-28T18:31:36.349Z,101003.88
2019-02-28T18:41:43.110Z,101012.36
2019-02-28T18:51:48.875Z,101037.41
2019-02-28T19:01:54.668Z,101069.43
2019-02-28T19:12:00.218Z,101091.97
2019-02-28T19:22:05.769Z,101117.02
2019-02-28T19:32:12.688Z,101152.23
2019-02-28T19:42:18.394Z,101154.61
2019-02-28T19:52:24.096Z,101185.38
2019-02-28T20:02:30.727Z,101179.13
2019-02-28T20:12:36.456Z,101186.20
2019-02-28T20:22:42.331Z,101181.70
2019-02-28T20:32:48.648Z,101187.46
2019-02-28T20:42:54.352Z,101200.54
2019-02-28T20:53:00.058Z,101217.94
2019-02-28T21:03:05.883Z,101227.53
2019-02-28T21:13:11.889Z,101265.09
2019-02-28T21:23:17.552Z,101312.97
2019-02-28T21:33:23.148Z,101372.15
2019-02-28T21:43:28.918Z,101422.89
2019-02-28T21:53:34.462Z,101506.91
2019-02-28T22:03:40.575Z,101566.02
2019-02-28T22:13:48.134Z,101593.88
2019-02-28T22:23:54.173Z,101641.63
2019-02-28T22:34:04.011Z,101663.56
2019-02-28T22:44:09.442Z,101686.72
2019-02-28T22:54:15.018Z,101702.66
2019-02-28T23:04:20.584Z,101726.62
2019-02-28T23:14:26.415Z,101715.32
2019-02-28T23:24:32.009Z,101721.31
2019-02-28T23:34:37.928Z,101730.02
2019-02-28T23:44:43.619Z,101738.73
2019-02-28T23:54:49.332Z,101770.67
